Terminal Aerodrome Forecast
Issued by NWS Louisville, KY

Home | Current Version | Previous Version | Text Only | Print | Product List | Glossary On
Versions: 1 2 3 4 5 6 7 8 9 10 11 12 13 14 15 16
223
FTUS43 KLMK 141127
TAFSDF
TAF
KSDF 141127Z 1412/1518 13005KT P6SM SKC
     FM141500 19008KT P6SM FEW030 SCT250
     FM150700 20012KT P6SM SCT025 SCT050 BKN250
     FM151200 21011KT P6SM VCSH SCT025 BKN040
     FM151600 28012G20KT P6SM VCSH BKN015=

USA.gov is the U.S. government's official web portal to all federal, state and local government web resources and services.